createdAt,value
2022-08-09T00:10:24.396Z,28.08
2022-08-09T00:20:31.602Z,28.14
2022-08-09T00:30:41.091Z,28.11
2022-08-09T00:40:51.573Z,28.08
2022-08-09T00:50:58.611Z,28.05
2022-08-09T01:01:05.669Z,28.04
2022-08-09T01:11:15.112Z,28.00
2022-08-09T01:21:24.875Z,28.02
2022-08-09T01:32:30.835Z,28.03
2022-08-09T01:41:53.616Z,27.97
2022-08-09T01:51:54.745Z,27.97
2022-08-09T02:02:01.323Z,27.98
2022-08-09T02:12:08.405Z,27.99
2022-08-09T02:22:15.318Z,27.95
2022-08-09T02:32:21.457Z,27.96
2022-08-09T02:42:29.479Z,27.94
2022-08-09T02:52:36.323Z,27.92
2022-08-09T03:02:58.144Z,27.89
2022-08-09T03:16:04.691Z,27.93
2022-08-09T03:25:58.597Z,27.95
2022-08-09T03:36:16.001Z,27.95
2022-08-09T03:46:19.974Z,27.93
2022-08-09T03:56:17.996Z,27.92
2022-08-09T04:06:24.133Z,27.89
2022-08-09T04:16:30.364Z,27.86
2022-08-09T04:26:38.091Z,27.84
2022-08-09T04:36:50.379Z,27.77
2022-08-09T04:46:58.670Z,27.81
2022-08-09T04:57:09.405Z,27.84
2022-08-09T05:07:19.306Z,27.78
2022-08-09T05:18:38.563Z,27.78
2022-08-09T05:27:38.909Z,27.77
2022-08-09T05:39:09.916Z,27.71
2022-08-09T05:50:23.905Z,27.70
2022-08-09T05:59:27.154Z,27.75
2022-08-09T06:09:53.953Z,27.74
2022-08-09T06:19:44.890Z,27.76
2022-08-09T06:30:04.291Z,27.73
2022-08-09T06:40:21.782Z,27.74
2022-08-09T06:50:19.014Z,27.71
2022-08-09T07:01:54.624Z,27.70
2022-08-09T07:11:57.017Z,27.75
2022-08-09T07:22:03.863Z,27.71
2022-08-09T07:32:10.800Z,27.74
2022-08-09T07:42:17.229Z,27.77
2022-08-09T07:52:24.243Z,27.80
2022-08-09T08:02:31.091Z,27.85
2022-08-09T08:12:42.400Z,27.86
2022-08-09T08:22:48.535Z,27.89
2022-08-09T08:34:15.223Z,27.93
2022-08-09T08:44:28.975Z,27.96
2022-08-09T08:54:36.793Z,27.98
2022-08-09T09:04:52.903Z,28.03
2022-08-09T09:14:56.346Z,27.99
2022-08-09T09:26:01.442Z,28.00
2022-08-09T09:35:15.999Z,28.02
2022-08-09T09:45:26.683Z,28.05
2022-08-09T09:55:36.002Z,28.07
2022-08-09T10:06:03.234Z,28.08
2022-08-09T10:16:55.712Z,28.16
2022-08-09T10:26:11.041Z,28.13
2022-08-09T10:36:19.187Z,28.18
2022-08-09T10:46:27.959Z,28.20
2022-08-09T10:56:35.166Z,28.18
2022-08-09T11:06:44.777Z,28.20
2022-08-09T11:16:52.060Z,28.25
2022-08-09T11:26:58.881Z,28.28
2022-08-09T11:37:17.888Z,28.27
2022-08-09T11:47:22.751Z,28.24
2022-08-09T11:57:59.830Z,28.28
2022-08-09T12:07:42.524Z,28.30
2022-08-09T12:17:52.196Z,28.37
2022-08-09T12:28:58.263Z,28.40
2022-08-09T12:38:12.595Z,28.38
2022-08-09T12:48:33.769Z,28.40
2022-08-09T12:58:42.755Z,28.41
2022-08-09T13:08:49.351Z,28.46
2022-08-09T13:19:02.551Z,28.45
2022-08-09T13:29:15.201Z,28.50
2022-08-09T13:41:21.238Z,28.48
2022-08-09T13:49:37.909Z,28.51
2022-08-09T13:59:46.393Z,28.53
2022-08-09T14:11:16.314Z,28.59
2022-08-09T14:21:22.810Z,28.61
2022-08-09T14:31:36.002Z,28.60
2022-08-09T14:41:42.155Z,28.62
2022-08-09T14:51:49.347Z,28.65
2022-08-09T15:01:57.014Z,28.81
2022-08-09T15:12:07.745Z,28.86
2022-08-09T15:22:15.156Z,28.74
2022-08-09T15:34:17.281Z,28.71
2022-08-09T15:43:55.089Z,28.75
2022-08-09T15:54:07.950Z,28.79
2022-08-09T16:04:13.999Z,28.76
2022-08-09T16:14:24.172Z,28.84
2022-08-09T16:24:34.056Z,28.81
2022-08-09T16:34:55.840Z,28.84
2022-08-09T16:44:52.506Z,28.85
2022-08-09T16:54:59.002Z,28.84
2022-08-09T17:05:06.788Z,28.83
2022-08-09T17:15:30.713Z,28.78
2022-08-09T17:25:30.512Z,28.74
2022-08-09T17:35:41.369Z,28.80
2022-08-09T17:46:04.213Z,28.76
2022-08-09T17:56:04.643Z,28.72
2022-08-09T18:06:28.826Z,28.70
2022-08-09T18:16:30.547Z,28.73
2022-08-09T18:26:33.642Z,28.66
2022-08-09T18:36:39.843Z,28.64
2022-08-09T18:47:05.091Z,28.62
2022-08-09T18:56:57.228Z,28.61
2022-08-09T19:07:08.772Z,28.58
2022-08-09T19:17:15.711Z,28.59
2022-08-09T19:27:22.413Z,28.59
2022-08-09T19:37:29.345Z,28.62
2022-08-09T19:47:40.930Z,28.63
2022-08-09T19:57:47.523Z,28.57
2022-08-09T20:07:59.579Z,28.58
2022-08-09T20:18:08.259Z,28.63
2022-08-09T20:28:27.971Z,28.70
2022-08-09T20:38:33.901Z,28.70
2022-08-09T20:48:37.882Z,28.66
2022-08-09T20:58:44.546Z,28.69
2022-08-09T21:08:51.670Z,28.63
2022-08-09T21:19:01.810Z,28.62
2022-08-09T21:29:11.994Z,28.64
2022-08-09T21:39:20.921Z,28.65
2022-08-09T21:49:28.986Z,28.58
2022-08-09T21:59:42.755Z,28.55
2022-08-09T22:09:50.086Z,28.57
2022-08-09T22:19:58.443Z,28.54
2022-08-09T22:30:06.281Z,28.48
2022-08-09T22:40:18.342Z,28.49
2022-08-09T22:50:25.862Z,28.54
2022-08-09T23:00:32.882Z,28.43
2022-08-09T23:10:43.524Z,28.53
2022-08-09T23:20:50.142Z,28.51
2022-08-09T23:30:56.179Z,28.50
2022-08-09T23:41:02.796Z,28.46
2022-08-09T23:51:08.817Z,28.43
